Terminal Aerodrome Forecast
Issued by NWS

Home | Current Version | Previous Version | Text Only | Print | Product List | Glossary On
Versions: 1 2 3 4 5 6 7 8 9 10 11 12 13 14 15 16 17
000
FTUS43 KDMX 300520
TAFFOD
TAF
KFOD 300520Z 3006/3106 VRB04KT P6SM BKN150
     FM300800 VRB03KT 4SM BR VCSH BKN120
     FM301300 30004KT P6SM BKN140
     FM301900 32005KT P6SM VCTS SCT040CB BKN150=

USA.gov is the U.S. government's official web portal to all federal, state and local government web resources and services.